Aérodrome :
LOGIN :

S'inscrire | Disclaimer

   EN    FR    IT 

 










Légende :    VFR   VFR Marginal   IFR   IFR Intensif   IFR Très Intensif
Visi : 
Plafond : 
>= 8 km
>= 3000ft
5 à 8 km
1000 à 3000 ft
1500m à 5 km
500 à 1000 ft
800 à 1500m
200 à 500 ft
< 800m
< 200 ft
Symboles :   Orages  Brouillard  Fortes neiges  Fortes précipitations  Vent > 20 kt
SIGMETs :   Divers  Orages  Givrage  Turbulence  Onde Orograph.  Cendres Volcan.






- Altitude de l'aérodrome : 39 ft


ETNH - Hohn AB

DERNIER METAR :
  • 161016Z 27014KT 9999 FEW003 BKN018 BKN023 12/11 Q1006 WHT WHT TEMPO YLO

METARs EXPIRÉS :
  • 161006Z 26009G19KT 7000 -DZ SCT003 BKN015 13/12 Q1006 WHT WHT TEMPO YLO
  • 160920Z 24004KT 5000 -DZ BR FEW002 BKN003 BKN017 13/13 Q1006 YLO GRN TEMPO AMB
  • 160849Z 25005KT 3500 -DZRA BR FEW003 BKN015 13/12 Q1006 YLO GRN TEMPO AMB
  • 160820Z 25003KT 4500 BR FEW003 BKN017 13/13 Q1006 GRN GRN TEMPO RED
  • 160720Z 26005KT 8000 BKN002 BKN006 13/13 Q1006 AMB GRN TEMPO RED

TAF AMD TAF ETNH
Valide du 16 à 06h jusqu'au 16 à 17h UTC


160628Z 1606/1617 27005KT 4000 RA SCT005 BKN020
TEMPO 1606/1608 29003KT 1000 RADZ BKN001
TEMPO 1608/1611 30003KT 1500 RADZ BKN002
BECMG 1611/1613 25008KT 9000 NSW SCT010 BKN050 BY ETGL



MET'MAP, la Météo Aéronautique d'un coup d'oeil ! - Copyright ORBIFLY Décembre 2007 - Disclaimer

ORBIFLY MET'MAP TEAM :

Programmation & Développement : Alexandra Zaïnal
Conception & Développement : Baudouin d'Aumeries
Co-Programmation & Développement : Marc-Olivier Méhu
Soutien technique & logistique : Manuel Goepfert

Contact : metmap@orbifly.com




SOURCES & CREDITS :

   NOAA